Madeira Airport Funchal PT
ICAO: LPMA
IATA: FNC
Category: Medium
Scheduled Services: Yes

Elevation: 192 ft
TransAlt. 5000 ft.

Airport Communications:
APP:119.2
TWR:118.35

LPMA Zoom In..

Runways:

(A) RW 05 length 8140 ft width 148 ft
---- / hdg 51

(B) RW 23 length 8140 ft width 148 ft
---- / hdg 231

Location; LPMA
Day. 14 / Time. 14.00 Zulu
* QNH: 1021
* Temperature: 25° c. 77°f.
* Wind from: 030° Speed 17 kn.
Dewpoint: 18° c.
Visibility: 10 km or more.
Clouds: Few 1600 ft.

LPMA 141400Z 03017KT 9999 FEW016 25/18 Q1021


Wind From 030°
Speed 17 kn.

 
 
jpsmedia.com for Web Design worldairports.se 2018   terms of use